sensor_id;sensor_type;location;lat;lon;timestamp;pressure;altitude;pressure_sealevel;temperature
76901;BMP280;65859;43.020;25.096;2023-03-19T00:00:10;99989.97;;;6.24
76901;BMP280;65859;43.020;25.096;2023-03-19T00:02:36;99996.81;;;6.25
76901;BMP280;65859;43.020;25.096;2023-03-19T00:05:03;100000.44;;;6.39
76901;BMP280;65859;43.020;25.096;2023-03-19T00:07:30;99992.53;;;6.44
76901;BMP280;65859;43.020;25.096;2023-03-19T00:09:57;99989.09;;;6.39
76901;BMP280;65859;43.020;25.096;2023-03-19T00:12:23;99991.00;;;6.33
76901;BMP280;65859;43.020;25.096;2023-03-19T00:14:49;99983.63;;;6.25
76901;BMP280;65859;43.020;25.096;2023-03-19T00:17:16;99993.19;;;6.16
76901;BMP280;65859;43.020;25.096;2023-03-19T00:19:44;99982.09;;;6.14
76901;BMP280;65859;43.020;25.096;2023-03-19T00:22:10;99977.84;;;6.23
76901;BMP280;65859;43.020;25.096;2023-03-19T00:24:36;99978.34;;;6.25
76901;BMP280;65859;43.020;25.096;2023-03-19T00:27:03;99971.50;;;6.29
76901;BMP280;65859;43.020;25.096;2023-03-19T00:29:29;99972.06;;;6.26
76901;BMP280;65859;43.020;25.096;2023-03-19T00:31:56;99969.97;;;6.18
76901;BMP280;65859;43.020;25.096;2023-03-19T00:34:22;99975.44;;;6.32
76901;BMP280;65859;43.020;25.096;2023-03-19T00:36:48;99972.34;;;6.19
76901;BMP280;65859;43.020;25.096;2023-03-19T00:39:15;99967.41;;;6.03
76901;BMP280;65859;43.020;25.096;2023-03-19T00:41:41;99967.94;;;5.94
76901;BMP280;65859;43.020;25.096;2023-03-19T00:44:16;99959.31;;;5.89
76901;BMP280;65859;43.020;25.096;2023-03-19T00:46:44;99954.25;;;5.92
76901;BMP280;65859;43.020;25.096;2023-03-19T00:49:10;99949.56;;;5.89
76901;BMP280;65859;43.020;25.096;2023-03-19T00:51:38;99953.13;;;6.09
76901;BMP280;65859;43.020;25.096;2023-03-19T00:54:10;99948.44;;;6.06
76901;BMP280;65859;43.020;25.096;2023-03-19T00:56:36;99950.13;;;5.76
76901;BMP280;65859;43.020;25.096;2023-03-19T00:59:03;99949.28;;;5.81
76901;BMP280;65859;43.020;25.096;2023-03-19T01:01:29;99945.13;;;5.69
76901;BMP280;65859;43.020;25.096;2023-03-19T01:03:56;99943.75;;;5.77
76901;BMP280;65859;43.020;25.096;2023-03-19T01:06:22;99945.34;;;5.83
76901;BMP280;65859;43.020;25.096;2023-03-19T01:08:48;99943.25;;;5.80
76901;BMP280;65859;43.020;25.096;2023-03-19T01:11:15;99943.50;;;5.79
76901;BMP280;65859;43.020;25.096;2023-03-19T01:13:42;99949.88;;;5.67
76901;BMP280;65859;43.020;25.096;2023-03-19T01:16:09;99946.97;;;5.69
76901;BMP280;65859;43.020;25.096;2023-03-19T01:18:35;99944.03;;;5.81
76901;BMP280;65859;43.020;25.096;2023-03-19T01:21:02;99942.75;;;5.73
76901;BMP280;65859;43.020;25.096;2023-03-19T01:23:30;99942.22;;;5.66
76901;BMP280;65859;43.020;25.096;2023-03-19T01:25:56;99943.81;;;5.72
76901;BMP280;65859;43.020;25.096;2023-03-19T01:28:23;99944.81;;;5.86
76901;BMP280;65859;43.020;25.096;2023-03-19T01:30:49;99946.34;;;5.97
76901;BMP280;65859;43.020;25.096;2023-03-19T01:33:16;99943.19;;;6.00
76901;BMP280;65859;43.020;25.096;2023-03-19T01:35:45;99945.50;;;6.12
76901;BMP280;65859;43.020;25.096;2023-03-19T01:38:15;99939.22;;;5.98
76901;BMP280;65859;43.020;25.096;2023-03-19T01:40:46;99945.81;;;6.06
76901;BMP280;65859;43.020;25.096;2023-03-19T01:45:47;99950.81;;;6.02
76901;BMP280;65859;43.020;25.096;2023-03-19T01:48:48;99951.88;;;6.01
76901;BMP280;65859;43.020;25.096;2023-03-19T01:51:17;99955.78;;;6.09
76901;BMP280;65859;43.020;25.096;2023-03-19T01:54:01;99964.25;;;6.06
76901;BMP280;65859;43.020;25.096;2023-03-19T01:56:35;99963.13;;;6.17
76901;BMP280;65859;43.020;25.096;2023-03-19T01:59:06;99956.34;;;5.95
76901;BMP280;65859;43.020;25.096;2023-03-19T02:01:38;99966.94;;;5.85
76901;BMP280;65859;43.020;25.096;2023-03-19T02:04:05;99967.66;;;5.96
76901;BMP280;65859;43.020;25.096;2023-03-19T02:06:32;99969.31;;;5.87
76901;BMP280;65859;43.020;25.096;2023-03-19T02:09:00;99971.19;;;5.71
76901;BMP280;65859;43.020;25.096;2023-03-19T02:11:27;99968.81;;;5.69
76901;BMP280;65859;43.020;25.096;2023-03-19T02:13:53;99962.66;;;5.99
76901;BMP280;65859;43.020;25.096;2023-03-19T02:16:20;99970.56;;;5.99
76901;BMP280;65859;43.020;25.096;2023-03-19T02:18:47;99968.47;;;6.01
76901;BMP280;65859;43.020;25.096;2023-03-19T02:21:16;99965.09;;;5.86
76901;BMP280;65859;43.020;25.096;2023-03-19T02:23:50;99962.16;;;5.97
76901;BMP280;65859;43.020;25.096;2023-03-19T02:26:22;99974.72;;;6.11
76901;BMP280;65859;43.020;25.096;2023-03-19T02:28:51;99966.53;;;6.22
76901;BMP280;65859;43.020;25.096;2023-03-19T02:31:18;99975.28;;;6.08
76901;BMP280;65859;43.020;25.096;2023-03-19T02:34:03;99975.00;;;6.09
76901;BMP280;65859;43.020;25.096;2023-03-19T02:36:34;99973.16;;;6.10
76901;BMP280;65859;43.020;25.096;2023-03-19T02:39:05;99975.78;;;6.10
76901;BMP280;65859;43.020;25.096;2023-03-19T02:41:33;99971.81;;;6.17
76901;BMP280;65859;43.020;25.096;2023-03-19T02:44:01;99979.47;;;6.19
76901;BMP280;65859;43.020;25.096;2023-03-19T02:46:28;99967.88;;;6.20
76901;BMP280;65859;43.020;25.096;2023-03-19T02:48:54;99972.91;;;6.11
76901;BMP280;65859;43.020;25.096;2023-03-19T02:51:21;99971.31;;;6.10
76901;BMP280;65859;43.020;25.096;2023-03-19T02:53:47;99967.09;;;6.09
76901;BMP280;65859;43.020;25.096;2023-03-19T02:56:13;99962.88;;;6.13
76901;BMP280;65859;43.020;25.096;2023-03-19T02:58:41;99968.41;;;6.17
76901;BMP280;65859;43.020;25.096;2023-03-19T03:01:07;99963.13;;;6.17
76901;BMP280;65859;43.020;25.096;2023-03-19T03:03:33;99967.31;;;6.23
76901;BMP280;65859;43.020;25.096;2023-03-19T03:06:00;99965.47;;;6.23
76901;BMP280;65859;43.020;25.096;2023-03-19T03:08:26;99967.56;;;6.26
76901;BMP280;65859;43.020;25.096;2023-03-19T03:10:53;99959.41;;;6.23
76901;BMP280;65859;43.020;25.096;2023-03-19T03:13:19;99954.09;;;6.28
76901;BMP280;65859;43.020;25.096;2023-03-19T03:15:46;99963.56;;;6.34
76901;BMP280;65859;43.020;25.096;2023-03-19T03:18:12;99962.03;;;6.33
76901;BMP280;65859;43.020;25.096;2023-03-19T03:20:38;99971.25;;;6.20
76901;BMP280;65859;43.020;25.096;2023-03-19T03:23:05;99968.63;;;6.20
76901;BMP280;65859;43.020;25.096;2023-03-19T03:25:32;99966.31;;;6.09
76901;BMP280;65859;43.020;25.096;2023-03-19T03:27:58;99967.34;;;6.13
76901;BMP280;65859;43.020;25.096;2023-03-19T03:30:26;99961.31;;;6.07
76901;BMP280;65859;43.020;25.096;2023-03-19T03:32:52;99965.31;;;6.05
76901;BMP280;65859;43.020;25.096;2023-03-19T03:35:18;99963.97;;;6.02
76901;BMP280;65859;43.020;25.096;2023-03-19T03:37:51;99954.50;;;6.01
76901;BMP280;65859;43.020;25.096;2023-03-19T03:40:17;99952.94;;;6.00
76901;BMP280;65859;43.020;25.096;2023-03-19T03:42:44;99953.97;;;6.04
76901;BMP280;65859;43.020;25.096;2023-03-19T03:45:10;99952.06;;;6.10
76901;BMP280;65859;43.020;25.096;2023-03-19T03:47:37;99945.03;;;5.95
76901;BMP280;65859;43.020;25.096;2023-03-19T03:50:04;99953.47;;;5.97
76901;BMP280;65859;43.020;25.096;2023-03-19T03:52:32;99951.09;;;6.00
76901;BMP280;65859;43.020;25.096;2023-03-19T03:54:59;99954.75;;;6.05
76901;BMP280;65859;43.020;25.096;2023-03-19T03:57:26;99956.06;;;6.07
76901;BMP280;65859;43.020;25.096;2023-03-19T03:59:52;99959.47;;;6.13
76901;BMP280;65859;43.020;25.096;2023-03-19T04:02:20;99966.47;;;6.33
76901;BMP280;65859;43.020;25.096;2023-03-19T04:04:47;99963.53;;;6.44
76901;BMP280;65859;43.020;25.096;2023-03-19T04:07:13;99964.00;;;6.51
76901;BMP280;65859;43.020;25.096;2023-03-19T04:09:40;99970.84;;;6.52
76901;BMP280;65859;43.020;25.096;2023-03-19T04:12:07;99961.44;;;6.36
76901;BMP280;65859;43.020;25.096;2023-03-19T04:14:33;99957.75;;;6.37
76901;BMP280;65859;43.020;25.096;2023-03-19T04:17:00;99959.63;;;6.32
76901;BMP280;65859;43.020;25.096;2023-03-19T04:19:26;99962.50;;;6.40
76901;BMP280;65859;43.020;25.096;2023-03-19T04:21:53;99969.84;;;6.43
76901;BMP280;65859;43.020;25.096;2023-03-19T04:24:19;99957.28;;;6.30
76901;BMP280;65859;43.020;25.096;2023-03-19T04:26:46;99971.19;;;6.36
76901;BMP280;65859;43.020;25.096;2023-03-19T04:29:13;99965.66;;;6.37
76901;BMP280;65859;43.020;25.096;2023-03-19T04:31:39;99969.00;;;6.53
76901;BMP280;65859;43.020;25.096;2023-03-19T04:34:07;99964.50;;;6.59
76901;BMP280;65859;43.020;25.096;2023-03-19T04:36:33;99962.50;;;6.35
76901;BMP280;65859;43.020;25.096;2023-03-19T04:39:00;99963.06;;;6.32
76901;BMP280;65859;43.020;25.096;2023-03-19T04:41:26;99967.72;;;6.45
76901;BMP280;65859;43.020;25.096;2023-03-19T04:43:53;99965.03;;;6.50
76901;BMP280;65859;43.020;25.096;2023-03-19T04:46:19;99969.91;;;6.28
76901;BMP280;65859;43.020;25.096;2023-03-19T04:48:45;99970.66;;;6.39
76901;BMP280;65859;43.020;25.096;2023-03-19T04:51:12;99969.78;;;6.59
76901;BMP280;65859;43.020;25.096;2023-03-19T04:53:38;99968.31;;;6.32
76901;BMP280;65859;43.020;25.096;2023-03-19T04:56:05;99966.69;;;6.36
76901;BMP280;65859;43.020;25.096;2023-03-19T04:58:33;99966.53;;;6.67
76901;BMP280;65859;43.020;25.096;2023-03-19T05:00:59;99963.63;;;6.68
76901;BMP280;65859;43.020;25.096;2023-03-19T05:03:26;99966.16;;;6.44
76901;BMP280;65859;43.020;25.096;2023-03-19T05:05:54;99957.13;;;6.56
76901;BMP280;65859;43.020;25.096;2023-03-19T05:08:21;99960.63;;;6.46
76901;BMP280;65859;43.020;25.096;2023-03-19T05:10:48;99956.63;;;6.48
76901;BMP280;65859;43.020;25.096;2023-03-19T05:13:14;99953.97;;;6.59
76901;BMP280;65859;43.020;25.096;2023-03-19T05:15:42;99956.97;;;6.81
76901;BMP280;65859;43.020;25.096;2023-03-19T05:18:09;99959.59;;;6.81
76901;BMP280;65859;43.020;25.096;2023-03-19T05:20:36;99964.75;;;6.96
76901;BMP280;65859;43.020;25.096;2023-03-19T05:23:04;99956.56;;;6.98
76901;BMP280;65859;43.020;25.096;2023-03-19T05:25:33;99956.19;;;7.63
76901;BMP280;65859;43.020;25.096;2023-03-19T05:28:01;99951.63;;;7.92
76901;BMP280;65859;43.020;25.096;2023-03-19T05:30:28;99949.56;;;7.65
76901;BMP280;65859;43.020;25.096;2023-03-19T05:32:58;99957.88;;;7.53
76901;BMP280;65859;43.020;25.096;2023-03-19T05:35:26;99962.63;;;8.37
76901;BMP280;65859;43.020;25.096;2023-03-19T05:37:56;99959.81;;;8.85
76901;BMP280;65859;43.020;25.096;2023-03-19T05:40:23;99956.63;;;9.15
76901;BMP280;65859;43.020;25.096;2023-03-19T05:42:50;99960.72;;;9.08
76901;BMP280;65859;43.020;25.096;2023-03-19T05:45:16;99962.59;;;9.07
76901;BMP280;65859;43.020;25.096;2023-03-19T05:47:45;99962.41;;;9.17
76901;BMP280;65859;43.020;25.096;2023-03-19T05:50:12;99967.03;;;9.26
76901;BMP280;65859;43.020;25.096;2023-03-19T05:52:39;99967.47;;;10.10
76901;BMP280;65859;43.020;25.096;2023-03-19T05:55:05;99962.63;;;10.26
76901;BMP280;65859;43.020;25.096;2023-03-19T05:57:33;99964.16;;;10.63
76901;BMP280;65859;43.020;25.096;2023-03-19T06:00:00;99966.22;;;11.06
76901;BMP280;65859;43.020;25.096;2023-03-19T06:02:27;99964.59;;;10.88
76901;BMP280;65859;43.020;25.096;2023-03-19T06:04:53;99971.19;;;11.30
76901;BMP280;65859;43.020;25.096;2023-03-19T06:07:20;99977.28;;;11.30
76901;BMP280;65859;43.020;25.096;2023-03-19T06:09:49;99964.56;;;11.67
76901;BMP280;65859;43.020;25.096;2023-03-19T06:12:23;99969.44;;;11.91
76901;BMP280;65859;43.020;25.096;2023-03-19T06:14:50;99966.03;;;11.99
76901;BMP280;65859;43.020;25.096;2023-03-19T06:17:17;99968.19;;;12.40
76901;BMP280;65859;43.020;25.096;2023-03-19T06:19:43;99968.19;;;12.40
76901;BMP280;65859;43.020;25.096;2023-03-19T06:22:11;99974.50;;;12.10
76901;BMP280;65859;43.020;25.096;2023-03-19T06:24:37;99970.34;;;12.64
76901;BMP280;65859;43.020;25.096;2023-03-19T06:27:04;99970.97;;;13.17
76901;BMP280;65859;43.020;25.096;2023-03-19T06:29:31;99967.25;;;13.39
76901;BMP280;65859;43.020;25.096;2023-03-19T06:31:58;99970.59;;;13.77
76901;BMP280;65859;43.020;25.096;2023-03-19T06:34:25;99968.53;;;13.32
76901;BMP280;65859;43.020;25.096;2023-03-19T06:36:51;99970.09;;;13.34
76901;BMP280;65859;43.020;25.096;2023-03-19T06:39:19;99975.50;;;13.16
76901;BMP280;65859;43.020;25.096;2023-03-19T06:41:48;99969.69;;;13.94
76901;BMP280;65859;43.020;25.096;2023-03-19T06:44:15;99969.72;;;14.27
76901;BMP280;65859;43.020;25.096;2023-03-19T06:46:45;99967.28;;;14.01
76901;BMP280;65859;43.020;25.096;2023-03-19T06:49:15;99963.94;;;14.04
76901;BMP280;65859;43.020;25.096;2023-03-19T06:51:47;99968.69;;;14.20
76901;BMP280;65859;43.020;25.096;2023-03-19T06:54:16;99961.56;;;14.81
76901;BMP280;65859;43.020;25.096;2023-03-19T06:56:55;99971.50;;;15.05
76901;BMP280;65859;43.020;25.096;2023-03-19T06:59:25;99966.47;;;14.22
76901;BMP280;65859;43.020;25.096;2023-03-19T07:01:58;99961.13;;;14.91
76901;BMP280;65859;43.020;25.096;2023-03-19T07:04:52;99959.47;;;14.87
76901;BMP280;65859;43.020;25.096;2023-03-19T07:07:38;99952.34;;;15.15
76901;BMP280;65859;43.020;25.096;2023-03-19T07:10:20;99955.84;;;15.84
76901;BMP280;65859;43.020;25.096;2023-03-19T07:12:58;99950.63;;;13.83
76901;BMP280;65859;43.020;25.096;2023-03-19T07:15:40;99948.44;;;13.06
76901;BMP280;65859;43.020;25.096;2023-03-19T07:18:09;99952.69;;;14.32
76901;BMP280;65859;43.020;25.096;2023-03-19T07:20:39;99943.22;;;15.04
76901;BMP280;65859;43.020;25.096;2023-03-19T07:23:17;99949.28;;;14.10
76901;BMP280;65859;43.020;25.096;2023-03-19T07:25:48;99947.47;;;13.10
76901;BMP280;65859;43.020;25.096;2023-03-19T07:28:31;99945.22;;;15.19
76901;BMP280;65859;43.020;25.096;2023-03-19T07:31:07;99941.22;;;15.01
76901;BMP280;65859;43.020;25.096;2023-03-19T07:36:49;99942.16;;;15.45
76901;BMP280;65859;43.020;25.096;2023-03-19T07:39:26;99931.25;;;15.78
76901;BMP280;65859;43.020;25.096;2023-03-19T07:42:12;99940.59;;;15.84
76901;BMP280;65859;43.020;25.096;2023-03-19T07:44:52;99948.31;;;14.72
76901;BMP280;65859;43.020;25.096;2023-03-19T07:47:45;99945.97;;;13.93
76901;BMP280;65859;43.020;25.096;2023-03-19T07:50:29;99942.53;;;15.72
76901;BMP280;65859;43.020;25.096;2023-03-19T07:53:39;99938.25;;;15.83
76901;BMP280;65859;43.020;25.096;2023-03-19T07:56:15;99937.47;;;16.73
76901;BMP280;65859;43.020;25.096;2023-03-19T07:59:13;99936.97;;;16.36
76901;BMP280;65859;43.020;25.096;2023-03-19T08:02:19;99932.97;;;15.58
76901;BMP280;65859;43.020;25.096;2023-03-19T08:05:12;99935.75;;;17.16
76901;BMP280;65859;43.020;25.096;2023-03-19T08:11:08;99953.34;;;20.82
76901;BMP280;65859;43.020;25.096;2023-03-19T08:23:02;99948.25;;;23.47
76901;BMP280;65859;43.020;25.096;2023-03-19T08:25:42;99943.53;;;23.58
76901;BMP280;65859;43.020;25.096;2023-03-19T08:28:11;99940.56;;;22.41
76901;BMP280;65859;43.020;25.096;2023-03-19T08:31:04;99938.34;;;23.75
76901;BMP280;65859;43.020;25.096;2023-03-19T08:33:34;99937.00;;;21.33
76901;BMP280;65859;43.020;25.096;2023-03-19T08:36:36;99932.41;;;24.35
76901;BMP280;65859;43.020;25.096;2023-03-19T08:42:23;99935.22;;;24.58
76901;BMP280;65859;43.020;25.096;2023-03-19T08:45:09;99922.31;;;26.56
76901;BMP280;65859;43.020;25.096;2023-03-19T08:47:49;99929.41;;;25.68
76901;BMP280;65859;43.020;25.096;2023-03-19T08:50:37;99921.09;;;24.37
76901;BMP280;65859;43.020;25.096;2023-03-19T08:53:32;99917.91;;;25.60
76901;BMP280;65859;43.020;25.096;2023-03-19T08:56:01;99914.16;;;25.97
76901;BMP280;65859;43.020;25.096;2023-03-19T09:02:40;99915.84;;;28.09
76901;BMP280;65859;43.020;25.096;2023-03-19T09:05:27;99909.94;;;28.27
76901;BMP280;65859;43.020;25.096;2023-03-19T09:08:11;99912.03;;;24.84
76901;BMP280;65859;43.020;25.096;2023-03-19T09:11:31;99901.38;;;26.34
76901;BMP280;65859;43.020;25.096;2023-03-19T09:14:09;99903.63;;;28.55
76901;BMP280;65859;43.020;25.096;2023-03-19T09:17:14;99891.66;;;27.82
76901;BMP280;65859;43.020;25.096;2023-03-19T09:20:08;99887.81;;;27.80
76901;BMP280;65859;43.020;25.096;2023-03-19T09:22:38;99893.00;;;29.86
76901;BMP280;65859;43.020;25.096;2023-03-19T09:25:12;99890.56;;;29.45
76901;BMP280;65859;43.020;25.096;2023-03-19T09:27:39;99895.13;;;29.13
76901;BMP280;65859;43.020;25.096;2023-03-19T09:30:45;99882.47;;;28.18
76901;BMP280;65859;43.020;25.096;2023-03-19T09:33:35;99880.75;;;29.34
76901;BMP280;65859;43.020;25.096;2023-03-19T09:36:43;99874.25;;;30.37
76901;BMP280;65859;43.020;25.096;2023-03-19T09:39:17;99875.44;;;30.67
76901;BMP280;65859;43.020;25.096;2023-03-19T09:48:23;99851.88;;;27.69
76901;BMP280;65859;43.020;25.096;2023-03-19T09:51:38;99862.03;;;30.29
76901;BMP280;65859;43.020;25.096;2023-03-19T09:54:50;99856.53;;;30.20
76901;BMP280;65859;43.020;25.096;2023-03-19T09:57:44;99852.88;;;31.73
76901;BMP280;65859;43.020;25.096;2023-03-19T10:07:14;99838.88;;;32.04
76901;BMP280;65859;43.020;25.096;2023-03-19T10:16:31;99829.97;;;34.68
76901;BMP280;65859;43.020;25.096;2023-03-19T10:19:15;99834.88;;;34.38
76901;BMP280;65859;43.020;25.096;2023-03-19T10:22:06;99818.59;;;32.58
76901;BMP280;65859;43.020;25.096;2023-03-19T10:24:43;99822.91;;;34.46
76901;BMP280;65859;43.020;25.096;2023-03-19T10:27:21;99825.69;;;33.27
76901;BMP280;65859;43.020;25.096;2023-03-19T10:30:10;99815.06;;;34.85
76901;BMP280;65859;43.020;25.096;2023-03-19T10:34:04;99807.13;;;35.50
76901;BMP280;65859;43.020;25.096;2023-03-19T10:36:35;99813.13;;;30.59
76901;BMP280;65859;43.020;25.096;2023-03-19T10:39:19;99806.00;;;33.05
76901;BMP280;65859;43.020;25.096;2023-03-19T10:44:59;99787.47;;;32.52
76901;BMP280;65859;43.020;25.096;2023-03-19T10:47:27;99775.34;;;35.66
76901;BMP280;65859;43.020;25.096;2023-03-19T10:49:55;99780.34;;;35.67
76901;BMP280;65859;43.020;25.096;2023-03-19T10:52:34;99768.06;;;32.32
76901;BMP280;65859;43.020;25.096;2023-03-19T10:57:30;99756.00;;;34.72
76901;BMP280;65859;43.020;25.096;2023-03-19T11:00:04;99757.56;;;36.65
76901;BMP280;65859;43.020;25.096;2023-03-19T11:02:31;99751.53;;;36.50
76901;BMP280;65859;43.020;25.096;2023-03-19T11:07:40;99740.72;;;35.82
76901;BMP280;65859;43.020;25.096;2023-03-19T11:10:27;99744.88;;;33.15
76901;BMP280;65859;43.020;25.096;2023-03-19T11:13:02;99735.91;;;36.69
76901;BMP280;65859;43.020;25.096;2023-03-19T11:15:35;99735.88;;;37.99
76901;BMP280;65859;43.020;25.096;2023-03-19T11:18:14;99738.16;;;33.16
76901;BMP280;65859;43.020;25.096;2023-03-19T11:20:42;99730.25;;;32.03
76901;BMP280;65859;43.020;25.096;2023-03-19T11:23:16;99724.31;;;29.49
76901;BMP280;65859;43.020;25.096;2023-03-19T11:25:48;99720.59;;;32.07
76901;BMP280;65859;43.020;25.096;2023-03-19T11:28:18;99721.34;;;32.08
76901;BMP280;65859;43.020;25.096;2023-03-19T11:31:06;99715.31;;;36.76
76901;BMP280;65859;43.020;25.096;2023-03-19T11:36:46;99703.13;;;35.10
76901;BMP280;65859;43.020;25.096;2023-03-19T11:50:29;99669.94;;;33.96
76901;BMP280;65859;43.020;25.096;2023-03-19T11:55:51;99671.72;;;34.71
76901;BMP280;65859;43.020;25.096;2023-03-19T12:00:55;99659.50;;;26.00
76901;BMP280;65859;43.020;25.096;2023-03-19T12:20:29;99638.28;;;20.01
76901;BMP280;65859;43.020;25.096;2023-03-19T12:28:23;99619.91;;;20.42
76901;BMP280;65859;43.020;25.096;2023-03-19T12:36:16;99601.78;;;19.38
76901;BMP280;65859;43.020;25.096;2023-03-19T12:38:57;99597.19;;;19.45
76901;BMP280;65859;43.020;25.096;2023-03-19T12:41:26;99600.75;;;19.64
76901;BMP280;65859;43.020;25.096;2023-03-19T12:49:46;99602.91;;;18.85
76901;BMP280;65859;43.020;25.096;2023-03-19T12:55:02;99591.81;;;18.91
76901;BMP280;65859;43.020;25.096;2023-03-19T13:08:46;99576.34;;;18.03
76901;BMP280;65859;43.020;25.096;2023-03-19T13:17:07;99576.72;;;18.01
76901;BMP280;65859;43.020;25.096;2023-03-19T13:19:44;99581.59;;;18.25
76901;BMP280;65859;43.020;25.096;2023-03-19T13:22:14;99572.22;;;17.75
76901;BMP280;65859;43.020;25.096;2023-03-19T13:24:42;99563.44;;;18.12
76901;BMP280;65859;43.020;25.096;2023-03-19T13:27:33;99566.50;;;18.14
76901;BMP280;65859;43.020;25.096;2023-03-19T13:30:15;99563.59;;;18.29
76901;BMP280;65859;43.020;25.096;2023-03-19T13:33:01;99551.84;;;17.74
76901;BMP280;65859;43.020;25.096;2023-03-19T13:35:50;99560.84;;;18.19
76901;BMP280;65859;43.020;25.096;2023-03-19T13:38:26;99550.63;;;18.02
76901;BMP280;65859;43.020;25.096;2023-03-19T13:41:01;99554.88;;;18.03
76901;BMP280;65859;43.020;25.096;2023-03-19T13:48:37;99553.94;;;17.58
76901;BMP280;65859;43.020;25.096;2023-03-19T13:59:39;99533.41;;;17.43
76901;BMP280;65859;43.020;25.096;2023-03-19T14:04:58;99528.59;;;17.55
76901;BMP280;65859;43.020;25.096;2023-03-19T14:07:34;99537.41;;;17.26
76901;BMP280;65859;43.020;25.096;2023-03-19T14:12:42;99524.69;;;17.23
76901;BMP280;65859;43.020;25.096;2023-03-19T14:25:26;99526.06;;;17.36
76901;BMP280;65859;43.020;25.096;2023-03-19T14:28:01;99528.03;;;17.16
76901;BMP280;65859;43.020;25.096;2023-03-19T14:30:47;99527.84;;;17.28
76901;BMP280;65859;43.020;25.096;2023-03-19T14:33:25;99524.84;;;17.07
76901;BMP280;65859;43.020;25.096;2023-03-19T14:35:58;99525.09;;;16.98
76901;BMP280;65859;43.020;25.096;2023-03-19T14:41:02;99529.66;;;17.21
76901;BMP280;65859;43.020;25.096;2023-03-19T14:55:02;99515.03;;;16.92
76901;BMP280;65859;43.020;25.096;2023-03-19T14:57:34;99525.53;;;16.77
76901;BMP280;65859;43.020;25.096;2023-03-19T15:00:02;99519.69;;;16.72
76901;BMP280;65859;43.020;25.096;2023-03-19T15:02:38;99515.94;;;16.76
76901;BMP280;65859;43.020;25.096;2023-03-19T15:05:28;99516.06;;;16.84
76901;BMP280;65859;43.020;25.096;2023-03-19T15:08:01;99519.81;;;16.79
76901;BMP280;65859;43.020;25.096;2023-03-19T15:10:31;99516.31;;;16.75
76901;BMP280;65859;43.020;25.096;2023-03-19T15:18:16;99519.03;;;16.78
76901;BMP280;65859;43.020;25.096;2023-03-19T15:20:51;99527.78;;;16.75
76901;BMP280;65859;43.020;25.096;2023-03-19T15:23:26;99524.25;;;16.71
76901;BMP280;65859;43.020;25.096;2023-03-19T15:26:00;99524.09;;;16.61
76901;BMP280;65859;43.020;25.096;2023-03-19T15:28:32;99521.66;;;16.52
76901;BMP280;65859;43.020;25.096;2023-03-19T15:31:04;99522.28;;;16.45
76901;BMP280;65859;43.020;25.096;2023-03-19T15:33:33;99520.69;;;16.41
76901;BMP280;65859;43.020;25.096;2023-03-19T15:36:29;99531.75;;;16.39
76901;BMP280;65859;43.020;25.096;2023-03-19T15:39:06;99533.56;;;16.32
76901;BMP280;65859;43.020;25.096;2023-03-19T15:41:43;99526.41;;;16.20
76901;BMP280;65859;43.020;25.096;2023-03-19T15:44:23;99531.06;;;16.23
76901;BMP280;65859;43.020;25.096;2023-03-19T15:46:51;99532.44;;;16.13
76901;BMP280;65859;43.020;25.096;2023-03-19T15:49:24;99533.75;;;16.04
76901;BMP280;65859;43.020;25.096;2023-03-19T15:51:57;99532.28;;;16.06
76901;BMP280;65859;43.020;25.096;2023-03-19T15:54:25;99537.16;;;16.01
76901;BMP280;65859;43.020;25.096;2023-03-19T15:56:53;99532.50;;;15.78
76901;BMP280;65859;43.020;25.096;2023-03-19T15:59:23;99542.03;;;15.79
76901;BMP280;65859;43.020;25.096;2023-03-19T16:01:58;99546.84;;;15.70
76901;BMP280;65859;43.020;25.096;2023-03-19T16:04:26;99547.16;;;15.69
76901;BMP280;65859;43.020;25.096;2023-03-19T16:06:58;99549.00;;;15.65
76901;BMP280;65859;43.020;25.096;2023-03-19T16:09:31;99549.44;;;15.67
76901;BMP280;65859;43.020;25.096;2023-03-19T16:11:58;99552.78;;;15.64
76901;BMP280;65859;43.020;25.096;2023-03-19T16:14:30;99544.19;;;15.54
76901;BMP280;65859;43.020;25.096;2023-03-19T16:17:11;99560.81;;;15.44
76901;BMP280;65859;43.020;25.096;2023-03-19T16:22:18;99548.97;;;15.29
76901;BMP280;65859;43.020;25.096;2023-03-19T16:24:47;99553.31;;;15.18
76901;BMP280;65859;43.020;25.096;2023-03-19T16:33:05;99554.78;;;15.16
76901;BMP280;65859;43.020;25.096;2023-03-19T16:35:33;99569.00;;;15.04
76901;BMP280;65859;43.020;25.096;2023-03-19T16:38:24;99567.00;;;15.01
76901;BMP280;65859;43.020;25.096;2023-03-19T16:43:46;99570.63;;;14.93
76901;BMP280;65859;43.020;25.096;2023-03-19T16:46:20;99574.75;;;14.90
76901;BMP280;65859;43.020;25.096;2023-03-19T16:48:46;99572.44;;;14.89
76901;BMP280;65859;43.020;25.096;2023-03-19T16:51:15;99580.50;;;14.77
76901;BMP280;65859;43.020;25.096;2023-03-19T16:53:43;99578.50;;;14.73
76901;BMP280;65859;43.020;25.096;2023-03-19T16:56:12;99587.56;;;14.85
76901;BMP280;65859;43.020;25.096;2023-03-19T16:58:42;99585.94;;;14.80
76901;BMP280;65859;43.020;25.096;2023-03-19T17:01:16;99589.44;;;14.68
76901;BMP280;65859;43.020;25.096;2023-03-19T17:03:45;99600.13;;;14.68
76901;BMP280;65859;43.020;25.096;2023-03-19T17:06:13;99603.16;;;14.67
76901;BMP280;65859;43.020;25.096;2023-03-19T17:08:40;99603.47;;;14.65
76901;BMP280;65859;43.020;25.096;2023-03-19T17:11:28;99602.47;;;14.42
76901;BMP280;65859;43.020;25.096;2023-03-19T17:13:58;99618.13;;;14.43
76901;BMP280;65859;43.020;25.096;2023-03-19T17:16:26;99608.69;;;14.46
76901;BMP280;65859;43.020;25.096;2023-03-19T17:18:54;99612.22;;;14.50
76901;BMP280;65859;43.020;25.096;2023-03-19T17:21:33;99624.50;;;14.39
76901;BMP280;65859;43.020;25.096;2023-03-19T17:24:24;99623.44;;;14.28
76901;BMP280;65859;43.020;25.096;2023-03-19T17:26:52;99625.19;;;14.24
76901;BMP280;65859;43.020;25.096;2023-03-19T17:29:20;99627.66;;;14.16
76901;BMP280;65859;43.020;25.096;2023-03-19T17:31:52;99635.09;;;14.23
76901;BMP280;65859;43.020;25.096;2023-03-19T17:34:22;99631.31;;;14.24
76901;BMP280;65859;43.020;25.096;2023-03-19T17:37:00;99640.44;;;14.23
76901;BMP280;65859;43.020;25.096;2023-03-19T17:39:27;99641.94;;;14.08